Terminal Aerodrome Forecast
Issued by NWS Shreveport, LA

Home | Current Version | Previous Version | Text Only | Print | Product List | Glossary On
Versions: 1 2 3 4 5 6 7 8 9 10 11 12 13 14 15 16 17 18 19 20 21 22 23 24 25 26 27 28 29 30
000
FTUS44 KSHV 242346
TAFLFK
TAF
KLFK 242346Z 2500/2524 06006KT P6SM FEW028
     FM250300 06004KT P6SM BKN015
      TEMPO 2509/2512 3SM BR OVC010
     FM251500 07007KT P6SM VCSH OVC015
     FM252100 06006KT P6SM OVC050=

USA.gov is the U.S. government's official web portal to all federal, state and local government web resources and services.